sensor_id;sensor_type;location;lat;lon;timestamp;P1;durP1;ratioP1;P2;durP2;ratioP2
41705;SDS011;27385;51.096;17.190;2023-12-20T00:04:41;10.50;;;2.90;;
41705;SDS011;27385;51.096;17.190;2023-12-20T00:07:32;13.70;;;2.90;;
41705;SDS011;27385;51.096;17.190;2023-12-20T00:10:23;14.40;;;3.00;;
41705;SDS011;27385;51.096;17.190;2023-12-20T00:16:03;11.80;;;3.50;;
41705;SDS011;27385;51.096;17.190;2023-12-20T00:18:54;12.70;;;4.30;;
41705;SDS011;27385;51.096;17.190;2023-12-20T00:21:45;12.30;;;3.30;;
41705;SDS011;27385;51.096;17.190;2023-12-20T00:27:24;12.70;;;3.20;;
41705;SDS011;27385;51.096;17.190;2023-12-20T00:30:15;12.40;;;3.30;;
41705;SDS011;27385;51.096;17.190;2023-12-20T00:35:55;11.60;;;3.00;;
41705;SDS011;27385;51.096;17.190;2023-12-20T00:38:46;13.60;;;3.20;;
41705;SDS011;27385;51.096;17.190;2023-12-20T00:41:37;15.10;;;4.00;;
41705;SDS011;27385;51.096;17.190;2023-12-20T00:44:28;13.00;;;4.20;;
41705;SDS011;27385;51.096;17.190;2023-12-20T00:47:19;14.50;;;4.40;;
41705;SDS011;27385;51.096;17.190;2023-12-20T00:50:10;14.20;;;4.00;;
41705;SDS011;27385;51.096;17.190;2023-12-20T00:53:00;16.30;;;4.90;;
41705;SDS011;27385;51.096;17.190;2023-12-20T00:55:51;11.90;;;3.80;;
41705;SDS011;27385;51.096;17.190;2023-12-20T00:58:42;13.00;;;4.00;;
41705;SDS011;27385;51.096;17.190;2023-12-20T01:01:33;14.20;;;4.30;;
41705;SDS011;27385;51.096;17.190;2023-12-20T01:07:13;14.40;;;4.40;;
41705;SDS011;27385;51.096;17.190;2023-12-20T01:10:04;14.80;;;4.20;;
41705;SDS011;27385;51.096;17.190;2023-12-20T01:12:55;12.80;;;4.00;;
41705;SDS011;27385;51.096;17.190;2023-12-20T01:15:46;13.90;;;4.10;;
41705;SDS011;27385;51.096;17.190;2023-12-20T01:18:37;16.30;;;4.20;;
41705;SDS011;27385;51.096;17.190;2023-12-20T01:24:16;17.10;;;5.00;;
41705;SDS011;27385;51.096;17.190;2023-12-20T01:27:07;9.70;;;3.40;;
41705;SDS011;27385;51.096;17.190;2023-12-20T01:32:46;14.60;;;4.40;;
41705;SDS011;27385;51.096;17.190;2023-12-20T01:35:36;16.90;;;5.90;;
41705;SDS011;27385;51.096;17.190;2023-12-20T01:38:27;14.40;;;4.80;;
41705;SDS011;27385;51.096;17.190;2023-12-20T01:41:18;14.90;;;5.10;;
41705;SDS011;27385;51.096;17.190;2023-12-20T01:44:08;13.50;;;4.60;;
41705;SDS011;27385;51.096;17.190;2023-12-20T01:47:00;16.80;;;6.30;;
41705;SDS011;27385;51.096;17.190;2023-12-20T01:49:51;15.20;;;4.40;;
41705;SDS011;27385;51.096;17.190;2023-12-20T01:52:41;14.10;;;3.60;;
41705;SDS011;27385;51.096;17.190;2023-12-20T01:55:33;12.30;;;3.90;;
41705;SDS011;27385;51.096;17.190;2023-12-20T01:58:27;15.20;;;3.90;;
41705;SDS011;27385;51.096;17.190;2023-12-20T02:01:18;13.90;;;3.80;;
41705;SDS011;27385;51.096;17.190;2023-12-20T02:04:10;11.10;;;3.00;;
41705;SDS011;27385;51.096;17.190;2023-12-20T02:07:00;10.90;;;3.20;;
41705;SDS011;27385;51.096;17.190;2023-12-20T02:09:52;11.70;;;3.10;;
41705;SDS011;27385;51.096;17.190;2023-12-20T02:12:44;8.80;;;2.70;;
41705;SDS011;27385;51.096;17.190;2023-12-20T02:15:35;11.70;;;3.00;;
41705;SDS011;27385;51.096;17.190;2023-12-20T02:18:26;9.90;;;2.80;;
41705;SDS011;27385;51.096;17.190;2023-12-20T02:21:17;11.50;;;2.60;;
41705;SDS011;27385;51.096;17.190;2023-12-20T02:24:09;10.00;;;2.70;;
41705;SDS011;27385;51.096;17.190;2023-12-20T02:27:00;9.30;;;2.80;;
41705;SDS011;27385;51.096;17.190;2023-12-20T02:29:51;10.20;;;2.90;;
41705;SDS011;27385;51.096;17.190;2023-12-20T02:32:42;11.80;;;3.00;;
41705;SDS011;27385;51.096;17.190;2023-12-20T02:35:32;12.80;;;4.30;;
41705;SDS011;27385;51.096;17.190;2023-12-20T02:38:23;9.30;;;2.90;;
41705;SDS011;27385;51.096;17.190;2023-12-20T02:41:13;12.00;;;2.80;;
41705;SDS011;27385;51.096;17.190;2023-12-20T02:44:05;14.70;;;2.80;;
41705;SDS011;27385;51.096;17.190;2023-12-20T02:46:56;10.80;;;2.60;;
41705;SDS011;27385;51.096;17.190;2023-12-20T02:49:47;7.20;;;1.90;;
41705;SDS011;27385;51.096;17.190;2023-12-20T02:52:39;9.20;;;2.10;;
41705;SDS011;27385;51.096;17.190;2023-12-20T02:55:30;7.60;;;1.90;;
41705;SDS011;27385;51.096;17.190;2023-12-20T02:58:20;8.50;;;1.90;;
41705;SDS011;27385;51.096;17.190;2023-12-20T03:01:11;7.30;;;1.60;;
41705;SDS011;27385;51.096;17.190;2023-12-20T03:04:02;8.30;;;1.60;;
41705;SDS011;27385;51.096;17.190;2023-12-20T03:06:53;5.90;;;1.60;;
41705;SDS011;27385;51.096;17.190;2023-12-20T03:09:43;5.90;;;1.20;;
41705;SDS011;27385;51.096;17.190;2023-12-20T03:12:34;7.20;;;1.20;;
41705;SDS011;27385;51.096;17.190;2023-12-20T03:18:14;7.50;;;1.30;;
41705;SDS011;27385;51.096;17.190;2023-12-20T03:21:05;4.80;;;1.30;;
41705;SDS011;27385;51.096;17.190;2023-12-20T03:23:56;6.30;;;1.50;;
41705;SDS011;27385;51.096;17.190;2023-12-20T03:29:36;6.10;;;1.30;;
41705;SDS011;27385;51.096;17.190;2023-12-20T03:35:15;7.40;;;1.30;;
41705;SDS011;27385;51.096;17.190;2023-12-20T03:38:07;4.90;;;1.10;;
41705;SDS011;27385;51.096;17.190;2023-12-20T03:40:58;4.30;;;1.10;;
41705;SDS011;27385;51.096;17.190;2023-12-20T03:43:49;3.50;;;1.00;;
41705;SDS011;27385;51.096;17.190;2023-12-20T03:46:39;5.10;;;0.80;;
41705;SDS011;27385;51.096;17.190;2023-12-20T03:49:30;4.80;;;0.80;;
41705;SDS011;27385;51.096;17.190;2023-12-20T03:52:20;2.40;;;0.60;;
41705;SDS011;27385;51.096;17.190;2023-12-20T03:55:11;3.20;;;0.40;;
41705;SDS011;27385;51.096;17.190;2023-12-20T04:00:50;2.80;;;0.60;;
41705;SDS011;27385;51.096;17.190;2023-12-20T04:06:31;1.30;;;0.40;;
41705;SDS011;27385;51.096;17.190;2023-12-20T04:09:22;1.30;;;0.30;;
41705;SDS011;27385;51.096;17.190;2023-12-20T04:15:01;0.80;;;0.20;;
41705;SDS011;27385;51.096;17.190;2023-12-20T04:17:56;1.40;;;0.30;;
41705;SDS011;27385;51.096;17.190;2023-12-20T04:20:47;2.00;;;0.20;;
41705;SDS011;27385;51.096;17.190;2023-12-20T04:23:40;4.10;;;0.40;;
41705;SDS011;27385;51.096;17.190;2023-12-20T04:26:31;1.50;;;0.20;;
41705;SDS011;27385;51.096;17.190;2023-12-20T04:29:22;1.40;;;0.30;;
41705;SDS011;27385;51.096;17.190;2023-12-20T04:32:12;1.30;;;0.30;;
41705;SDS011;27385;51.096;17.190;2023-12-20T04:37:53;2.50;;;0.30;;
41705;SDS011;27385;51.096;17.190;2023-12-20T04:40:44;1.10;;;0.20;;
41705;SDS011;27385;51.096;17.190;2023-12-20T04:43:35;3.40;;;0.40;;
41705;SDS011;27385;51.096;17.190;2023-12-20T04:46:26;1.80;;;0.40;;
41705;SDS011;27385;51.096;17.190;2023-12-20T04:49:17;1.60;;;0.40;;
41705;SDS011;27385;51.096;17.190;2023-12-20T04:54:57;1.70;;;0.40;;
41705;SDS011;27385;51.096;17.190;2023-12-20T04:57:48;1.00;;;0.20;;
41705;SDS011;27385;51.096;17.190;2023-12-20T05:00:39;1.30;;;0.30;;
41705;SDS011;27385;51.096;17.190;2023-12-20T05:03:30;1.10;;;0.30;;
41705;SDS011;27385;51.096;17.190;2023-12-20T05:06:21;3.00;;;0.40;;
41705;SDS011;27385;51.096;17.190;2023-12-20T05:09:12;1.50;;;0.30;;
41705;SDS011;27385;51.096;17.190;2023-12-20T05:12:03;1.50;;;0.20;;
41705;SDS011;27385;51.096;17.190;2023-12-20T05:14:55;1.20;;;0.30;;
41705;SDS011;27385;51.096;17.190;2023-12-20T05:17:47;1.20;;;0.20;;
41705;SDS011;27385;51.096;17.190;2023-12-20T05:20:38;1.20;;;0.20;;
41705;SDS011;27385;51.096;17.190;2023-12-20T05:23:29;0.70;;;0.20;;
41705;SDS011;27385;51.096;17.190;2023-12-20T05:26:20;0.80;;;0.20;;
41705;SDS011;27385;51.096;17.190;2023-12-20T05:29:10;1.10;;;0.30;;
41705;SDS011;27385;51.096;17.190;2023-12-20T05:32:01;1.70;;;0.20;;
41705;SDS011;27385;51.096;17.190;2023-12-20T05:34:53;1.40;;;0.20;;
41705;SDS011;27385;51.096;17.190;2023-12-20T05:37:44;1.60;;;0.40;;
41705;SDS011;27385;51.096;17.190;2023-12-20T05:40:35;1.60;;;0.30;;
41705;SDS011;27385;51.096;17.190;2023-12-20T05:43:26;1.20;;;0.30;;
41705;SDS011;27385;51.096;17.190;2023-12-20T05:46:17;1.50;;;0.20;;
41705;SDS011;27385;51.096;17.190;2023-12-20T05:49:09;0.80;;;0.20;;
41705;SDS011;27385;51.096;17.190;2023-12-20T05:52:00;1.90;;;0.30;;
41705;SDS011;27385;51.096;17.190;2023-12-20T05:54:51;2.10;;;0.50;;
41705;SDS011;27385;51.096;17.190;2023-12-20T05:57:41;3.50;;;0.50;;
41705;SDS011;27385;51.096;17.190;2023-12-20T06:00:32;2.40;;;0.40;;
41705;SDS011;27385;51.096;17.190;2023-12-20T06:03:23;3.50;;;0.40;;
41705;SDS011;27385;51.096;17.190;2023-12-20T06:06:14;2.60;;;0.50;;
41705;SDS011;27385;51.096;17.190;2023-12-20T06:09:05;2.10;;;0.50;;
41705;SDS011;27385;51.096;17.190;2023-12-20T06:11:56;3.90;;;0.30;;
41705;SDS011;27385;51.096;17.190;2023-12-20T06:14:47;1.00;;;0.20;;
41705;SDS011;27385;51.096;17.190;2023-12-20T06:17:38;0.90;;;0.30;;
41705;SDS011;27385;51.096;17.190;2023-12-20T06:20:29;2.60;;;0.50;;
41705;SDS011;27385;51.096;17.190;2023-12-20T06:23:19;1.80;;;0.40;;
41705;SDS011;27385;51.096;17.190;2023-12-20T06:26:10;1.80;;;0.40;;
41705;SDS011;27385;51.096;17.190;2023-12-20T06:29:01;3.20;;;0.40;;
41705;SDS011;27385;51.096;17.190;2023-12-20T06:31:52;1.10;;;0.30;;
41705;SDS011;27385;51.096;17.190;2023-12-20T06:34:43;1.80;;;0.50;;
41705;SDS011;27385;51.096;17.190;2023-12-20T06:37:34;3.60;;;0.70;;
41705;SDS011;27385;51.096;17.190;2023-12-20T06:40:25;3.20;;;0.60;;
41705;SDS011;27385;51.096;17.190;2023-12-20T06:43:16;2.50;;;0.70;;
41705;SDS011;27385;51.096;17.190;2023-12-20T06:46:07;2.00;;;0.40;;
41705;SDS011;27385;51.096;17.190;2023-12-20T06:48:59;4.80;;;0.70;;
41705;SDS011;27385;51.096;17.190;2023-12-20T06:51:49;4.30;;;1.10;;
41705;SDS011;27385;51.096;17.190;2023-12-20T06:54:41;1.90;;;0.40;;
41705;SDS011;27385;51.096;17.190;2023-12-20T06:57:32;1.60;;;0.40;;
41705;SDS011;27385;51.096;17.190;2023-12-20T07:00:24;5.20;;;0.90;;
41705;SDS011;27385;51.096;17.190;2023-12-20T07:03:15;4.50;;;0.60;;
41705;SDS011;27385;51.096;17.190;2023-12-20T07:06:06;4.50;;;0.40;;
41705;SDS011;27385;51.096;17.190;2023-12-20T07:08:57;3.80;;;0.60;;
41705;SDS011;27385;51.096;17.190;2023-12-20T07:11:48;3.90;;;0.50;;
41705;SDS011;27385;51.096;17.190;2023-12-20T07:14:39;2.60;;;0.70;;
41705;SDS011;27385;51.096;17.190;2023-12-20T07:17:30;3.00;;;0.60;;
41705;SDS011;27385;51.096;17.190;2023-12-20T07:20:22;3.70;;;0.50;;
41705;SDS011;27385;51.096;17.190;2023-12-20T07:23:13;2.70;;;0.40;;
41705;SDS011;27385;51.096;17.190;2023-12-20T07:26:04;1.40;;;0.30;;
41705;SDS011;27385;51.096;17.190;2023-12-20T07:28:54;1.70;;;0.50;;
41705;SDS011;27385;51.096;17.190;2023-12-20T07:31:47;1.50;;;0.20;;
41705;SDS011;27385;51.096;17.190;2023-12-20T07:34:39;1.50;;;0.30;;
41705;SDS011;27385;51.096;17.190;2023-12-20T07:37:30;2.90;;;0.60;;
41705;SDS011;27385;51.096;17.190;2023-12-20T07:40:21;2.30;;;0.40;;
41705;SDS011;27385;51.096;17.190;2023-12-20T07:43:13;1.60;;;0.30;;
41705;SDS011;27385;51.096;17.190;2023-12-20T07:46:07;3.40;;;1.00;;
41705;SDS011;27385;51.096;17.190;2023-12-20T07:48:58;2.80;;;0.30;;
41705;SDS011;27385;51.096;17.190;2023-12-20T07:51:49;1.70;;;0.30;;
41705;SDS011;27385;51.096;17.190;2023-12-20T07:54:40;2.20;;;0.20;;
41705;SDS011;27385;51.096;17.190;2023-12-20T07:57:32;2.20;;;0.30;;
41705;SDS011;27385;51.096;17.190;2023-12-20T08:00:23;2.50;;;0.50;;
41705;SDS011;27385;51.096;17.190;2023-12-20T08:03:14;3.20;;;0.50;;
41705;SDS011;27385;51.096;17.190;2023-12-20T08:06:05;3.40;;;0.80;;
41705;SDS011;27385;51.096;17.190;2023-12-20T08:08:56;3.70;;;0.70;;
41705;SDS011;27385;51.096;17.190;2023-12-20T08:11:48;1.40;;;0.40;;
41705;SDS011;27385;51.096;17.190;2023-12-20T08:14:39;1.60;;;0.30;;
41705;SDS011;27385;51.096;17.190;2023-12-20T08:17:31;4.50;;;0.50;;
41705;SDS011;27385;51.096;17.190;2023-12-20T08:20:22;1.70;;;0.30;;
41705;SDS011;27385;51.096;17.190;2023-12-20T08:23:13;3.80;;;0.40;;
41705;SDS011;27385;51.096;17.190;2023-12-20T08:26:05;2.90;;;0.40;;
41705;SDS011;27385;51.096;17.190;2023-12-20T08:28:56;4.30;;;0.40;;
41705;SDS011;27385;51.096;17.190;2023-12-20T08:31:47;2.30;;;0.50;;
41705;SDS011;27385;51.096;17.190;2023-12-20T08:34:43;2.80;;;0.60;;
41705;SDS011;27385;51.096;17.190;2023-12-20T08:37:34;6.10;;;0.90;;
41705;SDS011;27385;51.096;17.190;2023-12-20T08:40:25;2.70;;;0.40;;
41705;SDS011;27385;51.096;17.190;2023-12-20T08:43:15;4.90;;;0.70;;
41705;SDS011;27385;51.096;17.190;2023-12-20T08:46:07;9.30;;;1.80;;
41705;SDS011;27385;51.096;17.190;2023-12-20T08:48:58;4.20;;;0.90;;
41705;SDS011;27385;51.096;17.190;2023-12-20T08:51:49;2.10;;;0.50;;
41705;SDS011;27385;51.096;17.190;2023-12-20T08:54:40;2.20;;;0.40;;
41705;SDS011;27385;51.096;17.190;2023-12-20T08:57:31;2.20;;;0.40;;
41705;SDS011;27385;51.096;17.190;2023-12-20T09:00:22;4.00;;;0.60;;
41705;SDS011;27385;51.096;17.190;2023-12-20T09:03:15;6.40;;;1.20;;
41705;SDS011;27385;51.096;17.190;2023-12-20T09:06:06;7.20;;;1.30;;
41705;SDS011;27385;51.096;17.190;2023-12-20T09:08:57;11.70;;;1.80;;
41705;SDS011;27385;51.096;17.190;2023-12-20T09:11:48;4.70;;;0.90;;
41705;SDS011;27385;51.096;17.190;2023-12-20T09:14:39;5.30;;;1.10;;
41705;SDS011;27385;51.096;17.190;2023-12-20T09:17:30;8.00;;;1.20;;
41705;SDS011;27385;51.096;17.190;2023-12-20T09:20:21;3.80;;;0.80;;
41705;SDS011;27385;51.096;17.190;2023-12-20T09:23:12;7.30;;;1.30;;
41705;SDS011;27385;51.096;17.190;2023-12-20T09:26:03;5.50;;;0.90;;
41705;SDS011;27385;51.096;17.190;2023-12-20T09:28:54;8.10;;;1.70;;
41705;SDS011;27385;51.096;17.190;2023-12-20T09:31:45;6.40;;;1.00;;
41705;SDS011;27385;51.096;17.190;2023-12-20T09:34:36;8.00;;;1.50;;
41705;SDS011;27385;51.096;17.190;2023-12-20T09:40:17;10.40;;;1.70;;
41705;SDS011;27385;51.096;17.190;2023-12-20T09:43:10;9.00;;;1.70;;
41705;SDS011;27385;51.096;17.190;2023-12-20T09:46:04;9.70;;;2.20;;
41705;SDS011;27385;51.096;17.190;2023-12-20T09:48:58;11.80;;;2.20;;
41705;SDS011;27385;51.096;17.190;2023-12-20T09:51:50;12.50;;;2.40;;
41705;SDS011;27385;51.096;17.190;2023-12-20T09:54:43;7.40;;;1.40;;
41705;SDS011;27385;51.096;17.190;2023-12-20T09:57:36;6.60;;;1.20;;
41705;SDS011;27385;51.096;17.190;2023-12-20T10:00:28;7.30;;;1.30;;
41705;SDS011;27385;51.096;17.190;2023-12-20T10:03:19;6.90;;;1.20;;
41705;SDS011;27385;51.096;17.190;2023-12-20T10:06:13;8.20;;;1.50;;
41705;SDS011;27385;51.096;17.190;2023-12-20T10:09:04;11.60;;;1.80;;
41705;SDS011;27385;51.096;17.190;2023-12-20T10:11:55;10.80;;;1.90;;
41705;SDS011;27385;51.096;17.190;2023-12-20T10:14:46;9.40;;;2.50;;
41705;SDS011;27385;51.096;17.190;2023-12-20T10:17:38;8.90;;;1.70;;
41705;SDS011;27385;51.096;17.190;2023-12-20T10:20:29;8.00;;;1.60;;
41705;SDS011;27385;51.096;17.190;2023-12-20T10:23:21;7.00;;;1.60;;
41705;SDS011;27385;51.096;17.190;2023-12-20T10:26:11;6.90;;;1.40;;
41705;SDS011;27385;51.096;17.190;2023-12-20T10:29:09;5.20;;;1.30;;
41705;SDS011;27385;51.096;17.190;2023-12-20T10:32:00;6.50;;;1.10;;
41705;SDS011;27385;51.096;17.190;2023-12-20T10:35:15;9.10;;;0.90;;
41705;SDS011;27385;51.096;17.190;2023-12-20T10:38:08;4.50;;;0.80;;
41705;SDS011;27385;51.096;17.190;2023-12-20T10:40:59;6.60;;;1.20;;
41705;SDS011;27385;51.096;17.190;2023-12-20T10:43:54;6.70;;;1.10;;
41705;SDS011;27385;51.096;17.190;2023-12-20T10:46:47;3.10;;;0.70;;
41705;SDS011;27385;51.096;17.190;2023-12-20T10:49:39;7.70;;;1.10;;
41705;SDS011;27385;51.096;17.190;2023-12-20T10:52:31;5.70;;;0.80;;
41705;SDS011;27385;51.096;17.190;2023-12-20T10:55:23;7.90;;;1.30;;
41705;SDS011;27385;51.096;17.190;2023-12-20T10:58:15;4.80;;;1.00;;
41705;SDS011;27385;51.096;17.190;2023-12-20T11:01:09;6.60;;;1.10;;
41705;SDS011;27385;51.096;17.190;2023-12-20T11:04:02;5.20;;;0.90;;
41705;SDS011;27385;51.096;17.190;2023-12-20T11:06:59;4.20;;;0.80;;
41705;SDS011;27385;51.096;17.190;2023-12-20T11:09:58;6.20;;;0.80;;
41705;SDS011;27385;51.096;17.190;2023-12-20T11:12:53;5.40;;;1.20;;
41705;SDS011;27385;51.096;17.190;2023-12-20T11:15:47;6.50;;;1.40;;
41705;SDS011;27385;51.096;17.190;2023-12-20T11:18:38;8.90;;;2.20;;
41705;SDS011;27385;51.096;17.190;2023-12-20T11:21:31;7.90;;;1.20;;
41705;SDS011;27385;51.096;17.190;2023-12-20T11:24:22;9.90;;;1.10;;
41705;SDS011;27385;51.096;17.190;2023-12-20T11:27:14;10.50;;;1.60;;
41705;SDS011;27385;51.096;17.190;2023-12-20T11:30:06;5.40;;;1.20;;
41705;SDS011;27385;51.096;17.190;2023-12-20T11:32:57;4.50;;;1.00;;
41705;SDS011;27385;51.096;17.190;2023-12-20T11:35:49;7.30;;;1.30;;
41705;SDS011;27385;51.096;17.190;2023-12-20T11:38:40;6.90;;;1.20;;
41705;SDS011;27385;51.096;17.190;2023-12-20T11:41:45;7.20;;;1.70;;
41705;SDS011;27385;51.096;17.190;2023-12-20T11:44:37;10.60;;;1.40;;
41705;SDS011;27385;51.096;17.190;2023-12-20T11:47:32;7.80;;;0.90;;
41705;SDS011;27385;51.096;17.190;2023-12-20T11:50:24;4.20;;;0.60;;
41705;SDS011;27385;51.096;17.190;2023-12-20T11:53:15;3.20;;;0.60;;
41705;SDS011;27385;51.096;17.190;2023-12-20T11:56:08;4.00;;;0.80;;
41705;SDS011;27385;51.096;17.190;2023-12-20T11:59:00;4.50;;;0.50;;
41705;SDS011;27385;51.096;17.190;2023-12-20T12:01:51;3.30;;;0.60;;
41705;SDS011;27385;51.096;17.190;2023-12-20T12:04:43;6.90;;;0.50;;
41705;SDS011;27385;51.096;17.190;2023-12-20T12:07:38;4.90;;;0.60;;
41705;SDS011;27385;51.096;17.190;2023-12-20T12:10:30;3.60;;;0.30;;
41705;SDS011;27385;51.096;17.190;2023-12-20T12:13:21;7.10;;;0.80;;
41705;SDS011;27385;51.096;17.190;2023-12-20T12:16:17;8.30;;;0.80;;
41705;SDS011;27385;51.096;17.190;2023-12-20T12:19:10;1.90;;;0.40;;
41705;SDS011;27385;51.096;17.190;2023-12-20T12:22:12;7.40;;;0.70;;
41705;SDS011;27385;51.096;17.190;2023-12-20T12:25:11;1.00;;;0.20;;
41705;SDS011;27385;51.096;17.190;2023-12-20T12:28:03;3.20;;;0.40;;
41705;SDS011;27385;51.096;17.190;2023-12-20T12:30:58;4.70;;;0.40;;
41705;SDS011;27385;51.096;17.190;2023-12-20T12:33:49;6.60;;;0.40;;
41705;SDS011;27385;51.096;17.190;2023-12-20T12:36:40;3.50;;;0.60;;
41705;SDS011;27385;51.096;17.190;2023-12-20T12:39:31;1.70;;;0.40;;
41705;SDS011;27385;51.096;17.190;2023-12-20T12:42:23;4.10;;;0.50;;
41705;SDS011;27385;51.096;17.190;2023-12-20T12:45:16;3.60;;;0.40;;
41705;SDS011;27385;51.096;17.190;2023-12-20T12:48:07;3.30;;;0.60;;
41705;SDS011;27385;51.096;17.190;2023-12-20T12:50:58;4.80;;;0.50;;
41705;SDS011;27385;51.096;17.190;2023-12-20T12:53:49;2.50;;;0.50;;
41705;SDS011;27385;51.096;17.190;2023-12-20T12:56:40;5.20;;;0.50;;
41705;SDS011;27385;51.096;17.190;2023-12-20T12:59:31;5.20;;;0.90;;
41705;SDS011;27385;51.096;17.190;2023-12-20T13:02:22;4.40;;;0.80;;
41705;SDS011;27385;51.096;17.190;2023-12-20T13:05:13;5.20;;;0.90;;
41705;SDS011;27385;51.096;17.190;2023-12-20T13:08:06;5.30;;;0.60;;
41705;SDS011;27385;51.096;17.190;2023-12-20T13:10:57;4.40;;;0.70;;
41705;SDS011;27385;51.096;17.190;2023-12-20T13:13:48;3.90;;;0.50;;
41705;SDS011;27385;51.096;17.190;2023-12-20T13:16:39;3.40;;;0.70;;
41705;SDS011;27385;51.096;17.190;2023-12-20T13:22:19;4.80;;;0.60;;
41705;SDS011;27385;51.096;17.190;2023-12-20T13:25:09;5.80;;;0.50;;
41705;SDS011;27385;51.096;17.190;2023-12-20T13:28:00;3.20;;;0.50;;
41705;SDS011;27385;51.096;17.190;2023-12-20T13:30:51;8.80;;;0.70;;
41705;SDS011;27385;51.096;17.190;2023-12-20T13:33:42;6.30;;;0.70;;
41705;SDS011;27385;51.096;17.190;2023-12-20T13:36:33;4.30;;;0.50;;
41705;SDS011;27385;51.096;17.190;2023-12-20T13:39:24;4.50;;;0.70;;
41705;SDS011;27385;51.096;17.190;2023-12-20T13:42:14;4.90;;;0.40;;
41705;SDS011;27385;51.096;17.190;2023-12-20T13:45:06;7.80;;;0.60;;
41705;SDS011;27385;51.096;17.190;2023-12-20T13:47:58;5.00;;;0.50;;
41705;SDS011;27385;51.096;17.190;2023-12-20T13:50:49;6.10;;;0.60;;
41705;SDS011;27385;51.096;17.190;2023-12-20T13:53:40;7.60;;;0.70;;
41705;SDS011;27385;51.096;17.190;2023-12-20T13:56:31;4.20;;;0.60;;
41705;SDS011;27385;51.096;17.190;2023-12-20T13:59:22;5.80;;;0.60;;
41705;SDS011;27385;51.096;17.190;2023-12-20T14:02:14;9.40;;;0.50;;
41705;SDS011;27385;51.096;17.190;2023-12-20T14:05:05;7.40;;;0.70;;
41705;SDS011;27385;51.096;17.190;2023-12-20T14:07:56;5.90;;;0.90;;
41705;SDS011;27385;51.096;17.190;2023-12-20T14:10:48;1.50;;;0.40;;
41705;SDS011;27385;51.096;17.190;2023-12-20T14:13:39;5.50;;;0.60;;
41705;SDS011;27385;51.096;17.190;2023-12-20T14:16:29;4.40;;;0.50;;
41705;SDS011;27385;51.096;17.190;2023-12-20T14:19:20;5.30;;;0.60;;
41705;SDS011;27385;51.096;17.190;2023-12-20T14:25:05;10.00;;;0.40;;
41705;SDS011;27385;51.096;17.190;2023-12-20T14:27:58;3.70;;;0.60;;
41705;SDS011;27385;51.096;17.190;2023-12-20T14:30:49;5.30;;;0.60;;
41705;SDS011;27385;51.096;17.190;2023-12-20T14:33:40;6.10;;;0.80;;
41705;SDS011;27385;51.096;17.190;2023-12-20T14:39:20;4.70;;;0.50;;
41705;SDS011;27385;51.096;17.190;2023-12-20T14:42:11;12.60;;;0.80;;
41705;SDS011;27385;51.096;17.190;2023-12-20T14:45:02;5.90;;;0.50;;
41705;SDS011;27385;51.096;17.190;2023-12-20T14:47:53;7.70;;;0.50;;
41705;SDS011;27385;51.096;17.190;2023-12-20T14:50:44;4.60;;;0.50;;
41705;SDS011;27385;51.096;17.190;2023-12-20T14:53:36;6.80;;;0.80;;
41705;SDS011;27385;51.096;17.190;2023-12-20T14:56:27;5.80;;;0.90;;
41705;SDS011;27385;51.096;17.190;2023-12-20T14:59:18;10.00;;;1.20;;
41705;SDS011;27385;51.096;17.190;2023-12-20T15:02:10;6.70;;;0.60;;
41705;SDS011;27385;51.096;17.190;2023-12-20T15:05:00;5.60;;;0.80;;
41705;SDS011;27385;51.096;17.190;2023-12-20T15:07:51;9.60;;;0.90;;
41705;SDS011;27385;51.096;17.190;2023-12-20T15:10:42;3.20;;;0.50;;
41705;SDS011;27385;51.096;17.190;2023-12-20T15:13:33;3.60;;;0.60;;
41705;SDS011;27385;51.096;17.190;2023-12-20T15:16:24;5.80;;;0.50;;
41705;SDS011;27385;51.096;17.190;2023-12-20T15:19:15;5.40;;;0.70;;
41705;SDS011;27385;51.096;17.190;2023-12-20T15:22:06;6.80;;;0.90;;
41705;SDS011;27385;51.096;17.190;2023-12-20T15:24:57;5.00;;;0.70;;
41705;SDS011;27385;51.096;17.190;2023-12-20T15:27:49;4.40;;;0.70;;
41705;SDS011;27385;51.096;17.190;2023-12-20T15:30:40;4.40;;;0.60;;
41705;SDS011;27385;51.096;17.190;2023-12-20T15:33:31;6.40;;;0.80;;
41705;SDS011;27385;51.096;17.190;2023-12-20T15:39:11;3.60;;;0.60;;
41705;SDS011;27385;51.096;17.190;2023-12-20T15:42:03;7.10;;;0.90;;
41705;SDS011;27385;51.096;17.190;2023-12-20T15:44:54;5.60;;;0.90;;
41705;SDS011;27385;51.096;17.190;2023-12-20T15:47:45;7.40;;;1.00;;
41705;SDS011;27385;51.096;17.190;2023-12-20T15:50:36;8.30;;;1.00;;
41705;SDS011;27385;51.096;17.190;2023-12-20T15:53:26;8.30;;;1.00;;
41705;SDS011;27385;51.096;17.190;2023-12-20T15:56:17;7.30;;;1.40;;
41705;SDS011;27385;51.096;17.190;2023-12-20T15:59:09;7.20;;;1.30;;
41705;SDS011;27385;51.096;17.190;2023-12-20T16:01:59;9.70;;;1.40;;
41705;SDS011;27385;51.096;17.190;2023-12-20T16:07:39;11.10;;;1.50;;
41705;SDS011;27385;51.096;17.190;2023-12-20T16:10:30;11.90;;;1.50;;
41705;SDS011;27385;51.096;17.190;2023-12-20T16:13:21;6.70;;;1.40;;
41705;SDS011;27385;51.096;17.190;2023-12-20T16:16:12;8.60;;;1.60;;
41705;SDS011;27385;51.096;17.190;2023-12-20T16:19:03;9.60;;;1.60;;
41705;SDS011;27385;51.096;17.190;2023-12-20T16:21:55;9.70;;;1.70;;
41705;SDS011;27385;51.096;17.190;2023-12-20T16:24:46;10.90;;;1.70;;
41705;SDS011;27385;51.096;17.190;2023-12-20T16:27:37;11.80;;;1.40;;
41705;SDS011;27385;51.096;17.190;2023-12-20T16:30:27;9.80;;;1.60;;
41705;SDS011;27385;51.096;17.190;2023-12-20T16:33:19;11.90;;;2.00;;
41705;SDS011;27385;51.096;17.190;2023-12-20T16:36:12;9.10;;;1.60;;
41705;SDS011;27385;51.096;17.190;2023-12-20T16:39:03;13.20;;;2.00;;
41705;SDS011;27385;51.096;17.190;2023-12-20T16:41:55;9.70;;;2.00;;
41705;SDS011;27385;51.096;17.190;2023-12-20T16:44:47;14.50;;;2.30;;
41705;SDS011;27385;51.096;17.190;2023-12-20T16:47:38;9.70;;;1.90;;
41705;SDS011;27385;51.096;17.190;2023-12-20T16:50:29;16.90;;;2.90;;
41705;SDS011;27385;51.096;17.190;2023-12-20T16:53:19;12.50;;;2.80;;
41705;SDS011;27385;51.096;17.190;2023-12-20T16:56:10;11.70;;;2.20;;
41705;SDS011;27385;51.096;17.190;2023-12-20T16:59:01;9.00;;;1.70;;
41705;SDS011;27385;51.096;17.190;2023-12-20T17:01:52;13.20;;;2.00;;
41705;SDS011;27385;51.096;17.190;2023-12-20T17:04:43;12.10;;;2.40;;
41705;SDS011;27385;51.096;17.190;2023-12-20T17:07:35;14.40;;;2.40;;
41705;SDS011;27385;51.096;17.190;2023-12-20T17:10:26;9.30;;;1.70;;
41705;SDS011;27385;51.096;17.190;2023-12-20T17:13:17;18.70;;;4.10;;
41705;SDS011;27385;51.096;17.190;2023-12-20T17:16:08;11.00;;;3.10;;
41705;SDS011;27385;51.096;17.190;2023-12-20T17:19:00;12.30;;;2.70;;
41705;SDS011;27385;51.096;17.190;2023-12-20T17:21:52;13.80;;;2.30;;
41705;SDS011;27385;51.096;17.190;2023-12-20T17:27:32;9.40;;;1.80;;
41705;SDS011;27385;51.096;17.190;2023-12-20T17:30:23;9.10;;;1.70;;
41705;SDS011;27385;51.096;17.190;2023-12-20T17:33:13;7.60;;;1.50;;
41705;SDS011;27385;51.096;17.190;2023-12-20T17:36:05;8.10;;;1.30;;
41705;SDS011;27385;51.096;17.190;2023-12-20T17:38:59;9.50;;;1.40;;
41705;SDS011;27385;51.096;17.190;2023-12-20T17:41:50;8.80;;;1.20;;
41705;SDS011;27385;51.096;17.190;2023-12-20T17:44:41;9.00;;;1.10;;
41705;SDS011;27385;51.096;17.190;2023-12-20T17:47:32;5.90;;;1.10;;
41705;SDS011;27385;51.096;17.190;2023-12-20T17:50:23;8.00;;;1.10;;
41705;SDS011;27385;51.096;17.190;2023-12-20T17:53:14;6.60;;;0.70;;
41705;SDS011;27385;51.096;17.190;2023-12-20T17:56:06;4.20;;;0.70;;